createdAt,value
2023-04-25T17:34:53.916Z,51.30
2023-04-25T17:39:58.049Z,52.60
2023-04-25T17:45:02.131Z,53.00
2023-04-25T17:50:10.185Z,53.70
2023-04-25T17:55:14.582Z,54.00
2023-04-25T18:00:21.173Z,54.00
2023-04-25T18:05:27.860Z,53.70
2023-04-25T18:10:34.374Z,54.20
2023-04-25T18:15:39.118Z,54.30
2023-04-25T18:20:46.969Z,54.60
2023-04-25T18:25:51.552Z,54.90
2023-04-25T18:30:56.176Z,55.30
2023-04-25T18:36:03.760Z,55.70
2023-04-25T18:41:42.156Z,55.90
2023-04-25T18:46:46.622Z,56.00
2023-04-25T18:51:55.621Z,56.30
2023-04-25T18:57:00.704Z,56.60
2023-04-25T19:02:06.555Z,56.80
2023-04-25T19:07:14.234Z,56.90
2023-04-25T19:12:18.237Z,57.00
2023-04-25T19:17:22.172Z,57.20
2023-04-25T19:22:28.338Z,57.40
2023-04-25T19:27:33.192Z,57.70
2023-04-25T19:32:37.491Z,58.00
2023-04-25T19:37:45.851Z,58.30
2023-04-25T19:42:50.349Z,58.60
2023-04-25T19:47:55.457Z,59.10
2023-04-25T19:53:01.683Z,59.30
2023-04-25T19:58:06.513Z,59.80
2023-04-25T20:03:11.874Z,60.30
2023-04-25T20:08:18.426Z,60.70
2023-04-25T20:13:22.708Z,61.00
2023-04-25T20:18:26.917Z,61.40
2023-04-25T20:23:33.375Z,61.90
2023-04-25T20:28:37.525Z,62.30
2023-04-25T20:33:43.131Z,62.80
2023-04-25T20:38:49.073Z,63.40
2023-04-25T20:43:53.812Z,63.60
2023-04-25T20:49:02.445Z,64.10
2023-04-25T20:54:08.991Z,64.60
2023-04-25T20:59:14.895Z,65.00
2023-04-25T21:04:19.069Z,65.50
2023-04-25T21:09:25.201Z,65.90
2023-04-25T21:14:29.384Z,66.30
2023-04-25T21:19:33.674Z,67.30
2023-04-25T21:24:39.717Z,67.50
2023-04-25T21:29:43.764Z,68.00
2023-04-25T21:34:47.820Z,68.40
2023-04-25T21:39:54.221Z,68.80
2023-04-25T21:44:58.301Z,68.90
2023-04-25T21:50:03.333Z,69.00
2023-04-25T21:55:12.212Z,68.60
